sensor_id;sensor_type;location;lat;lon;timestamp;P1;durP1;ratioP1;P2;durP2;ratioP2
39426;SDS011;25938;48.470;1.486;2022-07-19T00:00:24;1.95;;;1.35;;
39426;SDS011;25938;48.470;1.486;2022-07-19T00:02:51;3.35;;;1.60;;
39426;SDS011;25938;48.470;1.486;2022-07-19T00:05:18;6.90;;;2.45;;
39426;SDS011;25938;48.470;1.486;2022-07-19T00:07:44;2.97;;;2.10;;
39426;SDS011;25938;48.470;1.486;2022-07-19T00:10:11;1.88;;;1.67;;
39426;SDS011;25938;48.470;1.486;2022-07-19T00:12:38;1.40;;;1.30;;
39426;SDS011;25938;48.470;1.486;2022-07-19T00:15:05;2.42;;;1.40;;
39426;SDS011;25938;48.470;1.486;2022-07-19T00:17:31;5.03;;;2.38;;
39426;SDS011;25938;48.470;1.486;2022-07-19T00:19:57;2.33;;;1.48;;
39426;SDS011;25938;48.470;1.486;2022-07-19T00:22:23;3.55;;;1.90;;
39426;SDS011;25938;48.470;1.486;2022-07-19T00:24:49;2.75;;;1.30;;
39426;SDS011;25938;48.470;1.486;2022-07-19T00:27:16;5.25;;;1.42;;
39426;SDS011;25938;48.470;1.486;2022-07-19T00:29:42;1.85;;;1.20;;
39426;SDS011;25938;48.470;1.486;2022-07-19T00:32:08;3.35;;;1.40;;
39426;SDS011;25938;48.470;1.486;2022-07-19T00:34:34;18.80;;;2.83;;
39426;SDS011;25938;48.470;1.486;2022-07-19T00:37:00;2.55;;;1.40;;
39426;SDS011;25938;48.470;1.486;2022-07-19T00:39:26;16.60;;;3.00;;
39426;SDS011;25938;48.470;1.486;2022-07-19T00:41:52;6.35;;;1.88;;
39426;SDS011;25938;48.470;1.486;2022-07-19T00:44:20;3.85;;;2.03;;
39426;SDS011;25938;48.470;1.486;2022-07-19T00:46:47;3.47;;;1.42;;
39426;SDS011;25938;48.470;1.486;2022-07-19T00:49:13;4.20;;;1.42;;
39426;SDS011;25938;48.470;1.486;2022-07-19T00:51:39;8.88;;;1.70;;
39426;SDS011;25938;48.470;1.486;2022-07-19T00:54:06;2.67;;;1.38;;
39426;SDS011;25938;48.470;1.486;2022-07-19T00:56:33;3.13;;;1.83;;
39426;SDS011;25938;48.470;1.486;2022-07-19T00:59:02;1.90;;;1.60;;
39426;SDS011;25938;48.470;1.486;2022-07-19T01:01:28;3.85;;;1.50;;
39426;SDS011;25938;48.470;1.486;2022-07-19T01:03:55;3.22;;;1.77;;
39426;SDS011;25938;48.470;1.486;2022-07-19T01:06:22;3.30;;;1.40;;
39426;SDS011;25938;48.470;1.486;2022-07-19T01:08:48;2.90;;;1.50;;
39426;SDS011;25938;48.470;1.486;2022-07-19T01:11:14;3.40;;;1.60;;
39426;SDS011;25938;48.470;1.486;2022-07-19T01:13:40;2.28;;;1.70;;
39426;SDS011;25938;48.470;1.486;2022-07-19T01:16:06;3.97;;;1.83;;
39426;SDS011;25938;48.470;1.486;2022-07-19T01:18:32;3.70;;;1.80;;
39426;SDS011;25938;48.470;1.486;2022-07-19T01:20:58;2.80;;;1.70;;
39426;SDS011;25938;48.470;1.486;2022-07-19T01:23:25;6.13;;;1.48;;
39426;SDS011;25938;48.470;1.486;2022-07-19T01:25:51;3.58;;;1.50;;
39426;SDS011;25938;48.470;1.486;2022-07-19T01:28:17;3.50;;;1.30;;
39426;SDS011;25938;48.470;1.486;2022-07-19T01:30:44;1.98;;;1.75;;
39426;SDS011;25938;48.470;1.486;2022-07-19T01:33:10;2.38;;;1.30;;
39426;SDS011;25938;48.470;1.486;2022-07-19T01:35:36;2.75;;;1.33;;
39426;SDS011;25938;48.470;1.486;2022-07-19T01:38:02;4.07;;;1.38;;
39426;SDS011;25938;48.470;1.486;2022-07-19T01:40:28;6.22;;;1.60;;
39426;SDS011;25938;48.470;1.486;2022-07-19T01:42:54;4.13;;;1.70;;
39426;SDS011;25938;48.470;1.486;2022-07-19T01:45:20;4.68;;;1.38;;
39426;SDS011;25938;48.470;1.486;2022-07-19T01:47:47;4.78;;;2.08;;
39426;SDS011;25938;48.470;1.486;2022-07-19T01:50:14;2.78;;;1.23;;
39426;SDS011;25938;48.470;1.486;2022-07-19T01:52:40;3.45;;;1.70;;
39426;SDS011;25938;48.470;1.486;2022-07-19T01:55:06;1.30;;;1.20;;
39426;SDS011;25938;48.470;1.486;2022-07-19T01:57:33;3.10;;;1.80;;
39426;SDS011;25938;48.470;1.486;2022-07-19T01:59:59;4.07;;;1.48;;
39426;SDS011;25938;48.470;1.486;2022-07-19T02:02:25;4.35;;;1.55;;
39426;SDS011;25938;48.470;1.486;2022-07-19T02:04:51;5.90;;;1.70;;
39426;SDS011;25938;48.470;1.486;2022-07-19T02:07:17;6.30;;;1.30;;
39426;SDS011;25938;48.470;1.486;2022-07-19T02:09:43;3.15;;;1.85;;
39426;SDS011;25938;48.470;1.486;2022-07-19T02:12:09;7.80;;;2.15;;
39426;SDS011;25938;48.470;1.486;2022-07-19T02:14:35;4.35;;;1.50;;
39426;SDS011;25938;48.470;1.486;2022-07-19T02:17:01;4.95;;;2.83;;
39426;SDS011;25938;48.470;1.486;2022-07-19T02:19:27;3.42;;;1.50;;
39426;SDS011;25938;48.470;1.486;2022-07-19T02:21:54;4.47;;;1.42;;
39426;SDS011;25938;48.470;1.486;2022-07-19T02:24:20;3.63;;;2.35;;
39426;SDS011;25938;48.470;1.486;2022-07-19T02:26:46;3.17;;;1.55;;
39426;SDS011;25938;48.470;1.486;2022-07-19T02:29:12;2.40;;;2.17;;
39426;SDS011;25938;48.470;1.486;2022-07-19T02:31:38;5.57;;;1.67;;
39426;SDS011;25938;48.470;1.486;2022-07-19T02:34:04;4.68;;;1.70;;
39426;SDS011;25938;48.470;1.486;2022-07-19T02:36:30;1.67;;;1.35;;
39426;SDS011;25938;48.470;1.486;2022-07-19T02:38:56;3.70;;;1.83;;
39426;SDS011;25938;48.470;1.486;2022-07-19T02:41:23;2.08;;;1.50;;
39426;SDS011;25938;48.470;1.486;2022-07-19T02:43:49;4.90;;;2.03;;
39426;SDS011;25938;48.470;1.486;2022-07-19T02:46:15;3.85;;;1.80;;
39426;SDS011;25938;48.470;1.486;2022-07-19T02:48:41;4.68;;;1.77;;
39426;SDS011;25938;48.470;1.486;2022-07-19T02:51:11;2.25;;;1.10;;
39426;SDS011;25938;48.470;1.486;2022-07-19T02:53:37;2.10;;;1.50;;
39426;SDS011;25938;48.470;1.486;2022-07-19T02:56:04;2.85;;;1.65;;
39426;SDS011;25938;48.470;1.486;2022-07-19T02:58:30;3.75;;;1.70;;
39426;SDS011;25938;48.470;1.486;2022-07-19T03:00:56;2.58;;;1.35;;
39426;SDS011;25938;48.470;1.486;2022-07-19T03:03:22;1.70;;;1.33;;
39426;SDS011;25938;48.470;1.486;2022-07-19T03:06:07;4.63;;;1.67;;
39426;SDS011;25938;48.470;1.486;2022-07-19T03:08:33;2.15;;;1.40;;
39426;SDS011;25938;48.470;1.486;2022-07-19T03:10:59;2.00;;;1.45;;
39426;SDS011;25938;48.470;1.486;2022-07-19T03:13:25;7.75;;;1.58;;
39426;SDS011;25938;48.470;1.486;2022-07-19T03:15:51;3.30;;;1.30;;
39426;SDS011;25938;48.470;1.486;2022-07-19T03:18:17;2.08;;;1.70;;
39426;SDS011;25938;48.470;1.486;2022-07-19T03:20:43;2.40;;;1.52;;
39426;SDS011;25938;48.470;1.486;2022-07-19T03:23:09;3.30;;;1.10;;
39426;SDS011;25938;48.470;1.486;2022-07-19T03:25:35;3.72;;;1.73;;
39426;SDS011;25938;48.470;1.486;2022-07-19T03:28:01;4.70;;;1.42;;
39426;SDS011;25938;48.470;1.486;2022-07-19T03:30:27;6.70;;;2.65;;
39426;SDS011;25938;48.470;1.486;2022-07-19T03:32:53;3.42;;;1.67;;
39426;SDS011;25938;48.470;1.486;2022-07-19T03:35:20;2.35;;;1.55;;
39426;SDS011;25938;48.470;1.486;2022-07-19T03:37:46;14.77;;;3.28;;
39426;SDS011;25938;48.470;1.486;2022-07-19T03:40:12;7.00;;;2.35;;
39426;SDS011;25938;48.470;1.486;2022-07-19T03:42:38;3.08;;;2.30;;
39426;SDS011;25938;48.470;1.486;2022-07-19T03:45:05;6.72;;;2.03;;
39426;SDS011;25938;48.470;1.486;2022-07-19T03:47:31;2.60;;;1.63;;
39426;SDS011;25938;48.470;1.486;2022-07-19T03:49:57;8.98;;;4.28;;
39426;SDS011;25938;48.470;1.486;2022-07-19T03:52:23;3.28;;;1.83;;
39426;SDS011;25938;48.470;1.486;2022-07-19T03:54:50;7.35;;;2.60;;
39426;SDS011;25938;48.470;1.486;2022-07-19T03:57:16;4.25;;;2.28;;
39426;SDS011;25938;48.470;1.486;2022-07-19T03:59:42;4.82;;;2.13;;
39426;SDS011;25938;48.470;1.486;2022-07-19T04:02:08;3.53;;;1.52;;
39426;SDS011;25938;48.470;1.486;2022-07-19T04:04:34;3.15;;;1.52;;
39426;SDS011;25938;48.470;1.486;2022-07-19T04:07:00;6.40;;;1.95;;
39426;SDS011;25938;48.470;1.486;2022-07-19T04:09:26;3.88;;;1.83;;
39426;SDS011;25938;48.470;1.486;2022-07-19T04:11:52;6.57;;;2.28;;
39426;SDS011;25938;48.470;1.486;2022-07-19T04:14:18;2.72;;;1.55;;
39426;SDS011;25938;48.470;1.486;2022-07-19T04:16:44;6.80;;;1.75;;
39426;SDS011;25938;48.470;1.486;2022-07-19T04:19:10;3.72;;;1.75;;
39426;SDS011;25938;48.470;1.486;2022-07-19T04:21:36;10.13;;;3.53;;
39426;SDS011;25938;48.470;1.486;2022-07-19T04:24:03;4.93;;;1.80;;
39426;SDS011;25938;48.470;1.486;2022-07-19T04:26:29;2.85;;;1.85;;
39426;SDS011;25938;48.470;1.486;2022-07-19T04:28:55;7.75;;;3.92;;
39426;SDS011;25938;48.470;1.486;2022-07-19T04:31:21;5.80;;;2.30;;
39426;SDS011;25938;48.470;1.486;2022-07-19T04:33:47;3.10;;;2.13;;
39426;SDS011;25938;48.470;1.486;2022-07-19T04:36:13;6.72;;;2.30;;
39426;SDS011;25938;48.470;1.486;2022-07-19T04:38:39;4.70;;;1.75;;
39426;SDS011;25938;48.470;1.486;2022-07-19T04:41:05;4.00;;;1.80;;
39426;SDS011;25938;48.470;1.486;2022-07-19T04:43:31;4.85;;;1.45;;
39426;SDS011;25938;48.470;1.486;2022-07-19T04:45:57;2.33;;;1.75;;
39426;SDS011;25938;48.470;1.486;2022-07-19T04:48:25;2.08;;;1.38;;
39426;SDS011;25938;48.470;1.486;2022-07-19T04:50:51;3.75;;;1.50;;
39426;SDS011;25938;48.470;1.486;2022-07-19T04:53:17;3.75;;;1.67;;
39426;SDS011;25938;48.470;1.486;2022-07-19T04:55:43;7.45;;;1.80;;
39426;SDS011;25938;48.470;1.486;2022-07-19T04:58:09;4.82;;;2.15;;
39426;SDS011;25938;48.470;1.486;2022-07-19T05:00:35;4.35;;;2.30;;
39426;SDS011;25938;48.470;1.486;2022-07-19T05:03:01;3.03;;;1.60;;
39426;SDS011;25938;48.470;1.486;2022-07-19T05:05:28;6.70;;;1.80;;
39426;SDS011;25938;48.470;1.486;2022-07-19T05:07:54;8.88;;;2.67;;
39426;SDS011;25938;48.470;1.486;2022-07-19T05:10:21;3.67;;;1.42;;
39426;SDS011;25938;48.470;1.486;2022-07-19T05:12:47;5.15;;;2.15;;
39426;SDS011;25938;48.470;1.486;2022-07-19T05:15:13;2.83;;;1.65;;
39426;SDS011;25938;48.470;1.486;2022-07-19T05:17:39;3.63;;;1.55;;
39426;SDS011;25938;48.470;1.486;2022-07-19T05:20:05;4.68;;;2.08;;
39426;SDS011;25938;48.470;1.486;2022-07-19T05:22:32;3.00;;;1.70;;
39426;SDS011;25938;48.470;1.486;2022-07-19T05:24:58;4.22;;;1.42;;
39426;SDS011;25938;48.470;1.486;2022-07-19T05:27:24;4.78;;;1.60;;
39426;SDS011;25938;48.470;1.486;2022-07-19T05:29:50;4.15;;;2.55;;
39426;SDS011;25938;48.470;1.486;2022-07-19T05:32:17;6.32;;;2.53;;
39426;SDS011;25938;48.470;1.486;2022-07-19T05:34:43;2.25;;;1.45;;
39426;SDS011;25938;48.470;1.486;2022-07-19T05:37:09;4.47;;;1.67;;
39426;SDS011;25938;48.470;1.486;2022-07-19T05:39:35;5.95;;;2.00;;
39426;SDS011;25938;48.470;1.486;2022-07-19T05:42:01;4.43;;;2.28;;
39426;SDS011;25938;48.470;1.486;2022-07-19T05:44:27;3.50;;;2.20;;
39426;SDS011;25938;48.470;1.486;2022-07-19T05:46:53;3.53;;;2.17;;
39426;SDS011;25938;48.470;1.486;2022-07-19T05:49:19;5.82;;;2.05;;
39426;SDS011;25938;48.470;1.486;2022-07-19T05:51:46;5.53;;;2.30;;
39426;SDS011;25938;48.470;1.486;2022-07-19T05:54:12;2.83;;;1.85;;
39426;SDS011;25938;48.470;1.486;2022-07-19T05:56:38;7.93;;;2.38;;
39426;SDS011;25938;48.470;1.486;2022-07-19T05:59:04;6.05;;;2.67;;
39426;SDS011;25938;48.470;1.486;2022-07-19T06:01:30;5.97;;;2.70;;
39426;SDS011;25938;48.470;1.486;2022-07-19T06:03:59;8.75;;;2.60;;
39426;SDS011;25938;48.470;1.486;2022-07-19T06:06:26;5.70;;;2.33;;
39426;SDS011;25938;48.470;1.486;2022-07-19T06:08:53;7.10;;;3.17;;
39426;SDS011;25938;48.470;1.486;2022-07-19T06:11:19;3.47;;;1.63;;
39426;SDS011;25938;48.470;1.486;2022-07-19T06:13:45;5.15;;;1.98;;
39426;SDS011;25938;48.470;1.486;2022-07-19T06:16:12;12.25;;;2.83;;
39426;SDS011;25938;48.470;1.486;2022-07-19T06:18:38;6.05;;;2.17;;
39426;SDS011;25938;48.470;1.486;2022-07-19T06:21:06;5.22;;;2.35;;
39426;SDS011;25938;48.470;1.486;2022-07-19T06:23:32;6.72;;;2.38;;
39426;SDS011;25938;48.470;1.486;2022-07-19T06:25:58;5.85;;;2.72;;
39426;SDS011;25938;48.470;1.486;2022-07-19T06:28:25;5.18;;;2.88;;
39426;SDS011;25938;48.470;1.486;2022-07-19T06:30:51;5.50;;;1.98;;
39426;SDS011;25938;48.470;1.486;2022-07-19T06:33:17;7.03;;;2.88;;
39426;SDS011;25938;48.470;1.486;2022-07-19T06:35:43;5.70;;;2.40;;
39426;SDS011;25938;48.470;1.486;2022-07-19T06:38:09;7.53;;;2.40;;
39426;SDS011;25938;48.470;1.486;2022-07-19T06:40:35;5.95;;;2.75;;
39426;SDS011;25938;48.470;1.486;2022-07-19T06:43:01;7.22;;;2.80;;
39426;SDS011;25938;48.470;1.486;2022-07-19T06:45:27;10.93;;;3.60;;
39426;SDS011;25938;48.470;1.486;2022-07-19T06:47:53;4.13;;;2.78;;
39426;SDS011;25938;48.470;1.486;2022-07-19T06:50:20;9.23;;;3.40;;
39426;SDS011;25938;48.470;1.486;2022-07-19T06:52:46;7.03;;;3.00;;
39426;SDS011;25938;48.470;1.486;2022-07-19T06:55:12;4.70;;;2.88;;
39426;SDS011;25938;48.470;1.486;2022-07-19T06:57:39;5.80;;;2.63;;
39426;SDS011;25938;48.470;1.486;2022-07-19T07:00:05;7.03;;;3.08;;
39426;SDS011;25938;48.470;1.486;2022-07-19T07:02:32;7.45;;;3.15;;
39426;SDS011;25938;48.470;1.486;2022-07-19T07:04:58;5.35;;;2.70;;
39426;SDS011;25938;48.470;1.486;2022-07-19T07:07:24;3.28;;;2.10;;
39426;SDS011;25938;48.470;1.486;2022-07-19T07:09:50;5.93;;;2.30;;
39426;SDS011;25938;48.470;1.486;2022-07-19T07:12:17;8.55;;;3.00;;
39426;SDS011;25938;48.470;1.486;2022-07-19T07:14:43;6.18;;;2.60;;
39426;SDS011;25938;48.470;1.486;2022-07-19T07:17:09;5.22;;;2.50;;
39426;SDS011;25938;48.470;1.486;2022-07-19T07:19:35;2.67;;;2.42;;
39426;SDS011;25938;48.470;1.486;2022-07-19T07:22:01;3.70;;;2.10;;
39426;SDS011;25938;48.470;1.486;2022-07-19T07:24:27;5.32;;;2.80;;
39426;SDS011;25938;48.470;1.486;2022-07-19T07:26:53;3.67;;;2.55;;
39426;SDS011;25938;48.470;1.486;2022-07-19T07:29:19;5.22;;;2.47;;
39426;SDS011;25938;48.470;1.486;2022-07-19T07:31:45;6.85;;;2.60;;
39426;SDS011;25938;48.470;1.486;2022-07-19T07:34:12;3.85;;;2.05;;
39426;SDS011;25938;48.470;1.486;2022-07-19T07:36:38;4.95;;;2.38;;
39426;SDS011;25938;48.470;1.486;2022-07-19T07:39:04;4.68;;;2.75;;
39426;SDS011;25938;48.470;1.486;2022-07-19T07:41:30;5.63;;;2.35;;
39426;SDS011;25938;48.470;1.486;2022-07-19T07:43:56;7.32;;;3.72;;
39426;SDS011;25938;48.470;1.486;2022-07-19T07:46:22;8.15;;;2.78;;
39426;SDS011;25938;48.470;1.486;2022-07-19T07:48:48;5.53;;;2.83;;
39426;SDS011;25938;48.470;1.486;2022-07-19T07:51:14;6.55;;;2.65;;
39426;SDS011;25938;48.470;1.486;2022-07-19T07:53:40;9.32;;;3.25;;
39426;SDS011;25938;48.470;1.486;2022-07-19T07:56:06;5.50;;;2.67;;
39426;SDS011;25938;48.470;1.486;2022-07-19T07:58:32;11.45;;;2.80;;
39426;SDS011;25938;48.470;1.486;2022-07-19T08:00:58;9.77;;;3.08;;
39426;SDS011;25938;48.470;1.486;2022-07-19T08:03:25;4.88;;;3.08;;
39426;SDS011;25938;48.470;1.486;2022-07-19T08:05:51;4.22;;;2.80;;
39426;SDS011;25938;48.470;1.486;2022-07-19T08:08:17;9.52;;;3.13;;
39426;SDS011;25938;48.470;1.486;2022-07-19T08:10:43;5.95;;;2.55;;
39426;SDS011;25938;48.470;1.486;2022-07-19T08:13:09;8.02;;;2.83;;
39426;SDS011;25938;48.470;1.486;2022-07-19T08:15:36;6.35;;;2.55;;
39426;SDS011;25938;48.470;1.486;2022-07-19T08:18:02;5.63;;;2.67;;
39426;SDS011;25938;48.470;1.486;2022-07-19T08:20:28;2.60;;;2.38;;
39426;SDS011;25938;48.470;1.486;2022-07-19T08:22:54;6.93;;;2.72;;
39426;SDS011;25938;48.470;1.486;2022-07-19T08:25:20;5.95;;;2.60;;
39426;SDS011;25938;48.470;1.486;2022-07-19T08:27:46;3.83;;;2.38;;
39426;SDS011;25938;48.470;1.486;2022-07-19T08:30:13;3.17;;;2.15;;
39426;SDS011;25938;48.470;1.486;2022-07-19T08:32:39;6.18;;;2.70;;
39426;SDS011;25938;48.470;1.486;2022-07-19T08:35:06;6.47;;;2.28;;
39426;SDS011;25938;48.470;1.486;2022-07-19T08:37:33;15.00;;;3.10;;
39426;SDS011;25938;48.470;1.486;2022-07-19T08:39:59;5.05;;;2.65;;
39426;SDS011;25938;48.470;1.486;2022-07-19T08:42:25;6.22;;;3.08;;
39426;SDS011;25938;48.470;1.486;2022-07-19T08:44:52;6.15;;;3.33;;
39426;SDS011;25938;48.470;1.486;2022-07-19T08:47:19;4.82;;;2.53;;
39426;SDS011;25938;48.470;1.486;2022-07-19T08:49:45;13.57;;;3.80;;
39426;SDS011;25938;48.470;1.486;2022-07-19T08:52:11;5.57;;;3.30;;
39426;SDS011;25938;48.470;1.486;2022-07-19T08:54:38;16.65;;;4.07;;
39426;SDS011;25938;48.470;1.486;2022-07-19T08:57:05;14.23;;;4.95;;
39426;SDS011;25938;48.470;1.486;2022-07-19T08:59:49;9.63;;;3.28;;
39426;SDS011;25938;48.470;1.486;2022-07-19T09:02:15;7.82;;;3.35;;
39426;SDS011;25938;48.470;1.486;2022-07-19T09:04:42;6.07;;;3.22;;
39426;SDS011;25938;48.470;1.486;2022-07-19T09:07:08;5.30;;;3.55;;
39426;SDS011;25938;48.470;1.486;2022-07-19T09:09:34;6.00;;;3.38;;
39426;SDS011;25938;48.470;1.486;2022-07-19T09:12:02;5.45;;;2.92;;
39426;SDS011;25938;48.470;1.486;2022-07-19T09:14:30;4.10;;;2.95;;
39426;SDS011;25938;48.470;1.486;2022-07-19T09:19:30;7.75;;;4.10;;
39426;SDS011;25938;48.470;1.486;2022-07-19T09:21:58;7.10;;;3.35;;
39426;SDS011;25938;48.470;1.486;2022-07-19T09:24:26;4.97;;;3.47;;
39426;SDS011;25938;48.470;1.486;2022-07-19T09:29:31;10.35;;;4.00;;
39426;SDS011;25938;48.470;1.486;2022-07-19T09:32:08;7.50;;;4.35;;
39426;SDS011;25938;48.470;1.486;2022-07-19T09:34:36;6.15;;;4.13;;
39426;SDS011;25938;48.470;1.486;2022-07-19T09:37:12;5.25;;;3.70;;
39426;SDS011;25938;48.470;1.486;2022-07-19T09:39:42;5.63;;;3.90;;
39426;SDS011;25938;48.470;1.486;2022-07-19T09:42:16;4.45;;;3.10;;
39426;SDS011;25938;48.470;1.486;2022-07-19T09:44:42;6.25;;;3.80;;
39426;SDS011;25938;48.470;1.486;2022-07-19T09:47:09;4.32;;;3.22;;
39426;SDS011;25938;48.470;1.486;2022-07-19T09:49:35;6.88;;;4.55;;
39426;SDS011;25938;48.470;1.486;2022-07-19T09:52:01;6.53;;;4.25;;
39426;SDS011;25938;48.470;1.486;2022-07-19T09:54:28;6.60;;;3.75;;
39426;SDS011;25938;48.470;1.486;2022-07-19T09:56:55;5.43;;;4.30;;
39426;SDS011;25938;48.470;1.486;2022-07-19T09:59:22;176.27;;;28.15;;
39426;SDS011;25938;48.470;1.486;2022-07-19T10:01:49;112.55;;;19.27;;
39426;SDS011;25938;48.470;1.486;2022-07-19T10:04:18;327.02;;;53.22;;
39426;SDS011;25938;48.470;1.486;2022-07-19T10:06:46;212.63;;;33.03;;
39426;SDS011;25938;48.470;1.486;2022-07-19T10:09:13;82.28;;;15.25;;
39426;SDS011;25938;48.470;1.486;2022-07-19T10:11:40;159.23;;;27.05;;
39426;SDS011;25938;48.470;1.486;2022-07-19T10:14:06;144.35;;;24.80;;
39426;SDS011;25938;48.470;1.486;2022-07-19T10:19:10;157.82;;;24.33;;
39426;SDS011;25938;48.470;1.486;2022-07-19T10:21:38;116.22;;;22.23;;
39426;SDS011;25938;48.470;1.486;2022-07-19T10:24:05;126.55;;;22.48;;
39426;SDS011;25938;48.470;1.486;2022-07-19T10:26:39;45.15;;;12.63;;
39426;SDS011;25938;48.470;1.486;2022-07-19T10:29:09;106.72;;;20.13;;
39426;SDS011;25938;48.470;1.486;2022-07-19T10:31:35;95.18;;;16.45;;
39426;SDS011;25938;48.470;1.486;2022-07-19T10:34:05;79.25;;;16.13;;
39426;SDS011;25938;48.470;1.486;2022-07-19T10:36:53;92.38;;;19.33;;
39426;SDS011;25938;48.470;1.486;2022-07-19T10:47:57;35.65;;;7.90;;
39426;SDS011;25938;48.470;1.486;2022-07-19T10:50:12;39.05;;;9.70;;
39426;SDS011;25938;48.470;1.486;2022-07-19T10:52:46;53.05;;;13.45;;
39426;SDS011;25938;48.470;1.486;2022-07-19T10:57:42;42.45;;;11.18;;
39426;SDS011;25938;48.470;1.486;2022-07-19T11:02:41;48.47;;;10.60;;
39426;SDS011;25938;48.470;1.486;2022-07-19T11:05:07;36.42;;;9.57;;
39426;SDS011;25938;48.470;1.486;2022-07-19T11:07:33;44.38;;;10.60;;
39426;SDS011;25938;48.470;1.486;2022-07-19T11:09:59;35.92;;;9.73;;
39426;SDS011;25938;48.470;1.486;2022-07-19T11:12:32;43.08;;;9.48;;
39426;SDS011;25938;48.470;1.486;2022-07-19T11:14:59;44.80;;;12.45;;
39426;SDS011;25938;48.470;1.486;2022-07-19T11:17:26;50.20;;;10.32;;
39426;SDS011;25938;48.470;1.486;2022-07-19T11:20:02;14.70;;;6.20;;
39426;SDS011;25938;48.470;1.486;2022-07-19T11:22:38;22.73;;;7.75;;
39426;SDS011;25938;48.470;1.486;2022-07-19T11:25:05;38.08;;;9.25;;
39426;SDS011;25938;48.470;1.486;2022-07-19T11:27:32;32.60;;;8.07;;
39426;SDS011;25938;48.470;1.486;2022-07-19T11:30:00;17.35;;;6.75;;
39426;SDS011;25938;48.470;1.486;2022-07-19T11:32:26;10.35;;;4.90;;
39426;SDS011;25938;48.470;1.486;2022-07-19T11:34:56;28.40;;;7.90;;
39426;SDS011;25938;48.470;1.486;2022-07-19T11:37:23;27.15;;;7.88;;
39426;SDS011;25938;48.470;1.486;2022-07-19T11:39:49;23.10;;;7.82;;
39426;SDS011;25938;48.470;1.486;2022-07-19T11:42:15;26.48;;;7.22;;
39426;SDS011;25938;48.470;1.486;2022-07-19T11:44:52;27.80;;;8.20;;
39426;SDS011;25938;48.470;1.486;2022-07-19T11:47:19;9.32;;;5.82;;
39426;SDS011;25938;48.470;1.486;2022-07-19T11:49:48;24.00;;;6.78;;
39426;SDS011;25938;48.470;1.486;2022-07-19T11:52:14;19.80;;;7.03;;
39426;SDS011;25938;48.470;1.486;2022-07-19T11:54:40;26.23;;;6.53;;
39426;SDS011;25938;48.470;1.486;2022-07-19T11:57:22;18.17;;;6.53;;
39426;SDS011;25938;48.470;1.486;2022-07-19T11:59:49;20.58;;;6.90;;
39426;SDS011;25938;48.470;1.486;2022-07-19T12:02:15;20.48;;;7.93;;
39426;SDS011;25938;48.470;1.486;2022-07-19T12:04:41;15.60;;;6.10;;
39426;SDS011;25938;48.470;1.486;2022-07-19T12:07:07;11.70;;;4.63;;
39426;SDS011;25938;48.470;1.486;2022-07-19T12:09:33;16.45;;;6.25;;
39426;SDS011;25938;48.470;1.486;2022-07-19T12:11:59;18.05;;;6.30;;
39426;SDS011;25938;48.470;1.486;2022-07-19T12:14:36;15.95;;;5.82;;
39426;SDS011;25938;48.470;1.486;2022-07-19T12:19:35;13.68;;;4.80;;
39426;SDS011;25938;48.470;1.486;2022-07-19T12:22:01;5.85;;;3.50;;
39426;SDS011;25938;48.470;1.486;2022-07-19T12:24:27;14.20;;;5.90;;
39426;SDS011;25938;48.470;1.486;2022-07-19T12:27:04;11.57;;;4.57;;
39426;SDS011;25938;48.470;1.486;2022-07-19T12:29:51;5.15;;;4.65;;
39426;SDS011;25938;48.470;1.486;2022-07-19T12:34:54;6.68;;;4.90;;
39426;SDS011;25938;48.470;1.486;2022-07-19T12:37:31;8.83;;;5.17;;
39426;SDS011;25938;48.470;1.486;2022-07-19T12:45:03;5.70;;;3.80;;
39426;SDS011;25938;48.470;1.486;2022-07-19T12:47:30;5.07;;;3.30;;
39426;SDS011;25938;48.470;1.486;2022-07-19T12:49:56;3.60;;;3.30;;
39426;SDS011;25938;48.470;1.486;2022-07-19T12:52:22;6.38;;;4.35;;
39426;SDS011;25938;48.470;1.486;2022-07-19T12:54:48;7.30;;;4.40;;
39426;SDS011;25938;48.470;1.486;2022-07-19T12:57:14;6.97;;;3.80;;
39426;SDS011;25938;48.470;1.486;2022-07-19T12:59:40;7.10;;;3.85;;
39426;SDS011;25938;48.470;1.486;2022-07-19T13:02:07;4.88;;;4.15;;
39426;SDS011;25938;48.470;1.486;2022-07-19T13:04:34;5.10;;;4.45;;
39426;SDS011;25938;48.470;1.486;2022-07-19T13:07:00;5.72;;;3.92;;
39426;SDS011;25938;48.470;1.486;2022-07-19T13:09:26;9.27;;;3.72;;
39426;SDS011;25938;48.470;1.486;2022-07-19T13:11:52;6.07;;;3.50;;
39426;SDS011;25938;48.470;1.486;2022-07-19T13:14:18;4.97;;;3.60;;
39426;SDS011;25938;48.470;1.486;2022-07-19T13:16:45;6.38;;;3.88;;
39426;SDS011;25938;48.470;1.486;2022-07-19T13:19:11;7.25;;;4.30;;
39426;SDS011;25938;48.470;1.486;2022-07-19T13:21:37;7.88;;;4.45;;
39426;SDS011;25938;48.470;1.486;2022-07-19T13:24:03;6.82;;;3.67;;
39426;SDS011;25938;48.470;1.486;2022-07-19T13:26:29;8.52;;;5.63;;
39426;SDS011;25938;48.470;1.486;2022-07-19T13:28:55;6.65;;;3.88;;
39426;SDS011;25938;48.470;1.486;2022-07-19T13:31:21;5.72;;;3.40;;
39426;SDS011;25938;48.470;1.486;2022-07-19T13:33:47;5.32;;;3.53;;
39426;SDS011;25938;48.470;1.486;2022-07-19T13:36:14;4.25;;;3.80;;
39426;SDS011;25938;48.470;1.486;2022-07-19T13:38:41;4.60;;;4.13;;
39426;SDS011;25938;48.470;1.486;2022-07-19T13:41:07;4.65;;;3.53;;
39426;SDS011;25938;48.470;1.486;2022-07-19T13:43:34;4.03;;;3.72;;
39426;SDS011;25938;48.470;1.486;2022-07-19T13:46:00;4.32;;;3.92;;
39426;SDS011;25938;48.470;1.486;2022-07-19T13:48:26;3.38;;;2.78;;
39426;SDS011;25938;48.470;1.486;2022-07-19T13:50:52;5.75;;;3.28;;
39426;SDS011;25938;48.470;1.486;2022-07-19T13:53:18;3.97;;;3.38;;
39426;SDS011;25938;48.470;1.486;2022-07-19T13:55:44;6.35;;;3.25;;
39426;SDS011;25938;48.470;1.486;2022-07-19T13:58:11;3.65;;;3.25;;
39426;SDS011;25938;48.470;1.486;2022-07-19T14:00:37;7.47;;;3.58;;
39426;SDS011;25938;48.470;1.486;2022-07-19T14:03:03;7.43;;;4.05;;
39426;SDS011;25938;48.470;1.486;2022-07-19T14:05:29;2.92;;;2.67;;
39426;SDS011;25938;48.470;1.486;2022-07-19T14:07:55;5.25;;;3.80;;
39426;SDS011;25938;48.470;1.486;2022-07-19T14:10:21;6.25;;;3.70;;
39426;SDS011;25938;48.470;1.486;2022-07-19T14:12:47;5.07;;;3.47;;
39426;SDS011;25938;48.470;1.486;2022-07-19T14:15:13;4.70;;;3.45;;
39426;SDS011;25938;48.470;1.486;2022-07-19T14:17:41;4.72;;;2.90;;
39426;SDS011;25938;48.470;1.486;2022-07-19T14:20:07;4.93;;;3.70;;
39426;SDS011;25938;48.470;1.486;2022-07-19T14:22:33;3.90;;;3.42;;
39426;SDS011;25938;48.470;1.486;2022-07-19T14:24:59;4.88;;;2.95;;
39426;SDS011;25938;48.470;1.486;2022-07-19T14:27:25;6.60;;;3.33;;
39426;SDS011;25938;48.470;1.486;2022-07-19T14:29:51;3.40;;;3.05;;
39426;SDS011;25938;48.470;1.486;2022-07-19T14:32:17;5.35;;;3.10;;
39426;SDS011;25938;48.470;1.486;2022-07-19T14:34:44;3.72;;;3.17;;
39426;SDS011;25938;48.470;1.486;2022-07-19T14:37:10;4.22;;;3.25;;
39426;SDS011;25938;48.470;1.486;2022-07-19T14:39:36;4.45;;;2.83;;
39426;SDS011;25938;48.470;1.486;2022-07-19T14:42:03;3.42;;;3.13;;
39426;SDS011;25938;48.470;1.486;2022-07-19T14:44:29;4.03;;;3.72;;
39426;SDS011;25938;48.470;1.486;2022-07-19T14:46:55;5.07;;;3.90;;
39426;SDS011;25938;48.470;1.486;2022-07-19T14:49:21;7.07;;;3.78;;
39426;SDS011;25938;48.470;1.486;2022-07-19T14:51:47;5.82;;;3.47;;
39426;SDS011;25938;48.470;1.486;2022-07-19T14:54:13;6.43;;;3.72;;
39426;SDS011;25938;48.470;1.486;2022-07-19T14:56:39;5.78;;;3.85;;
39426;SDS011;25938;48.470;1.486;2022-07-19T14:59:05;4.85;;;2.83;;
39426;SDS011;25938;48.470;1.486;2022-07-19T15:01:31;6.15;;;4.47;;
39426;SDS011;25938;48.470;1.486;2022-07-19T15:03:57;4.28;;;3.70;;
39426;SDS011;25938;48.470;1.486;2022-07-19T15:06:24;5.65;;;3.60;;
39426;SDS011;25938;48.470;1.486;2022-07-19T15:08:50;3.60;;;3.30;;
39426;SDS011;25938;48.470;1.486;2022-07-19T15:11:16;4.32;;;3.45;;